sensor_id;sensor_type;location;lat;lon;timestamp;temperature;humidity
41060;DHT22;26811;53.160;8.202;2022-07-29T00:02:03;15.00;99.90
41060;DHT22;26811;53.160;8.202;2022-07-29T00:07:04;15.00;99.90
41060;DHT22;26811;53.160;8.202;2022-07-29T00:12:05;15.00;99.90
41060;DHT22;26811;53.160;8.202;2022-07-29T00:17:05;15.10;99.90
41060;DHT22;26811;53.160;8.202;2022-07-29T00:22:06;15.10;99.90
41060;DHT22;26811;53.160;8.202;2022-07-29T00:27:06;15.10;99.90
41060;DHT22;26811;53.160;8.202;2022-07-29T00:32:07;15.00;99.90
41060;DHT22;26811;53.160;8.202;2022-07-29T00:37:08;15.00;99.90
41060;DHT22;26811;53.160;8.202;2022-07-29T00:42:08;15.00;99.90
41060;DHT22;26811;53.160;8.202;2022-07-29T00:47:10;14.90;99.90
41060;DHT22;26811;53.160;8.202;2022-07-29T00:52:11;14.90;99.90
41060;DHT22;26811;53.160;8.202;2022-07-29T00:57:12;14.90;99.90
41060;DHT22;26811;53.160;8.202;2022-07-29T01:02:13;14.80;99.90
41060;DHT22;26811;53.160;8.202;2022-07-29T01:07:13;14.80;99.90
41060;DHT22;26811;53.160;8.202;2022-07-29T01:12:19;14.80;99.90
41060;DHT22;26811;53.160;8.202;2022-07-29T01:17:28;14.80;99.90
41060;DHT22;26811;53.160;8.202;2022-07-29T01:33:24;14.70;99.90
41060;DHT22;26811;53.160;8.202;2022-07-29T01:38:46;14.60;99.90
41060;DHT22;26811;53.160;8.202;2022-07-29T01:43:57;14.60;99.90
41060;DHT22;26811;53.160;8.202;2022-07-29T01:49:12;14.60;99.90
41060;DHT22;26811;53.160;8.202;2022-07-29T01:54:39;14.60;99.90
41060;DHT22;26811;53.160;8.202;2022-07-29T01:59:43;14.70;99.90
41060;DHT22;26811;53.160;8.202;2022-07-29T02:04:47;14.60;99.90
41060;DHT22;26811;53.160;8.202;2022-07-29T02:09:50;14.60;99.90
41060;DHT22;26811;53.160;8.202;2022-07-29T02:14:53;14.50;99.90
41060;DHT22;26811;53.160;8.202;2022-07-29T02:19:57;14.50;99.90
41060;DHT22;26811;53.160;8.202;2022-07-29T02:24:59;14.40;99.90
41060;DHT22;26811;53.160;8.202;2022-07-29T02:30:02;14.40;99.90
41060;DHT22;26811;53.160;8.202;2022-07-29T02:35:03;14.30;99.90
41060;DHT22;26811;53.160;8.202;2022-07-29T02:40:08;14.30;99.90
41060;DHT22;26811;53.160;8.202;2022-07-29T02:45:09;14.30;99.90
41060;DHT22;26811;53.160;8.202;2022-07-29T02:50:37;14.40;99.90
41060;DHT22;26811;53.160;8.202;2022-07-29T02:56:04;14.30;99.90
41060;DHT22;26811;53.160;8.202;2022-07-29T03:01:27;14.30;99.90
41060;DHT22;26811;53.160;8.202;2022-07-29T03:06:30;14.30;99.90
41060;DHT22;26811;53.160;8.202;2022-07-29T03:11:34;14.30;99.90
41060;DHT22;26811;53.160;8.202;2022-07-29T03:16:35;14.40;99.90
41060;DHT22;26811;53.160;8.202;2022-07-29T03:21:36;14.40;99.90
41060;DHT22;26811;53.160;8.202;2022-07-29T03:26:37;14.30;99.90
41060;DHT22;26811;53.160;8.202;2022-07-29T03:31:38;14.30;99.90
41060;DHT22;26811;53.160;8.202;2022-07-29T03:36:38;14.30;99.90
41060;DHT22;26811;53.160;8.202;2022-07-29T03:41:39;14.30;99.90
41060;DHT22;26811;53.160;8.202;2022-07-29T03:46:43;14.30;99.90
41060;DHT22;26811;53.160;8.202;2022-07-29T03:51:44;14.30;99.90
41060;DHT22;26811;53.160;8.202;2022-07-29T03:56:46;14.30;99.90
41060;DHT22;26811;53.160;8.202;2022-07-29T04:01:49;14.30;99.90
41060;DHT22;26811;53.160;8.202;2022-07-29T04:06:50;14.40;99.90
41060;DHT22;26811;53.160;8.202;2022-07-29T04:11:50;14.30;99.90
41060;DHT22;26811;53.160;8.202;2022-07-29T04:16:51;14.30;99.90
41060;DHT22;26811;53.160;8.202;2022-07-29T04:21:53;14.30;99.90
41060;DHT22;26811;53.160;8.202;2022-07-29T04:26:53;14.30;99.90
41060;DHT22;26811;53.160;8.202;2022-07-29T04:31:54;14.30;99.90
41060;DHT22;26811;53.160;8.202;2022-07-29T04:36:55;14.40;99.90
41060;DHT22;26811;53.160;8.202;2022-07-29T04:41:56;14.40;99.90
41060;DHT22;26811;53.160;8.202;2022-07-29T04:46:57;14.30;99.90
41060;DHT22;26811;53.160;8.202;2022-07-29T04:51:57;14.30;99.90
41060;DHT22;26811;53.160;8.202;2022-07-29T04:56:58;14.40;99.90
41060;DHT22;26811;53.160;8.202;2022-07-29T05:01:58;14.40;99.90
41060;DHT22;26811;53.160;8.202;2022-07-29T05:06:59;14.50;99.90
41060;DHT22;26811;53.160;8.202;2022-07-29T05:11:59;14.50;99.90
41060;DHT22;26811;53.160;8.202;2022-07-29T05:17:00;14.60;99.90
41060;DHT22;26811;53.160;8.202;2022-07-29T05:22:00;14.60;99.90
41060;DHT22;26811;53.160;8.202;2022-07-29T05:27:01;14.60;99.90
41060;DHT22;26811;53.160;8.202;2022-07-29T05:32:02;14.70;99.90
41060;DHT22;26811;53.160;8.202;2022-07-29T05:37:03;14.90;99.90
41060;DHT22;26811;53.160;8.202;2022-07-29T05:42:08;15.00;99.90
41060;DHT22;26811;53.160;8.202;2022-07-29T05:47:08;15.20;99.90
41060;DHT22;26811;53.160;8.202;2022-07-29T05:52:09;15.30;99.90
41060;DHT22;26811;53.160;8.202;2022-07-29T05:57:20;15.30;99.90
41060;DHT22;26811;53.160;8.202;2022-07-29T06:02:21;15.30;99.90
41060;DHT22;26811;53.160;8.202;2022-07-29T06:07:22;15.50;99.90
41060;DHT22;26811;53.160;8.202;2022-07-29T06:12:22;16.00;99.90
41060;DHT22;26811;53.160;8.202;2022-07-29T06:17:23;16.30;99.90
41060;DHT22;26811;53.160;8.202;2022-07-29T06:22:24;16.80;99.90
41060;DHT22;26811;53.160;8.202;2022-07-29T06:27:24;17.40;99.90
41060;DHT22;26811;53.160;8.202;2022-07-29T06:32:25;17.50;99.90
41060;DHT22;26811;53.160;8.202;2022-07-29T06:37:25;17.40;99.90
41060;DHT22;26811;53.160;8.202;2022-07-29T06:42:26;17.30;99.90
41060;DHT22;26811;53.160;8.202;2022-07-29T06:47:26;17.20;99.90
41060;DHT22;26811;53.160;8.202;2022-07-29T06:52:27;17.00;99.90
41060;DHT22;26811;53.160;8.202;2022-07-29T06:57:27;16.90;99.90
41060;DHT22;26811;53.160;8.202;2022-07-29T07:02:28;16.90;99.90
41060;DHT22;26811;53.160;8.202;2022-07-29T07:07:28;17.10;99.90
41060;DHT22;26811;53.160;8.202;2022-07-29T07:12:29;17.50;99.90
41060;DHT22;26811;53.160;8.202;2022-07-29T07:17:29;18.10;99.90
41060;DHT22;26811;53.160;8.202;2022-07-29T07:22:30;19.00;99.90
41060;DHT22;26811;53.160;8.202;2022-07-29T07:27:31;20.00;99.90
41060;DHT22;26811;53.160;8.202;2022-07-29T07:32:32;20.60;99.90
41060;DHT22;26811;53.160;8.202;2022-07-29T07:37:33;21.50;99.90
41060;DHT22;26811;53.160;8.202;2022-07-29T07:42:34;22.20;99.10
41060;DHT22;26811;53.160;8.202;2022-07-29T07:47:36;23.40;97.80
41060;DHT22;26811;53.160;8.202;2022-07-29T07:52:50;25.10;95.30
41060;DHT22;26811;53.160;8.202;2022-07-29T07:57:51;26.00;91.90
41060;DHT22;26811;53.160;8.202;2022-07-29T08:02:51;25.70;91.20
41060;DHT22;26811;53.160;8.202;2022-07-29T08:07:52;25.70;91.00
41060;DHT22;26811;53.160;8.202;2022-07-29T08:12:53;25.70;90.90
41060;DHT22;26811;53.160;8.202;2022-07-29T08:17:53;25.80;91.40
41060;DHT22;26811;53.160;8.202;2022-07-29T08:22:54;26.50;90.60
41060;DHT22;26811;53.160;8.202;2022-07-29T08:27:54;26.80;89.30
41060;DHT22;26811;53.160;8.202;2022-07-29T08:32:55;27.00;89.90
41060;DHT22;26811;53.160;8.202;2022-07-29T08:37:55;27.10;88.70
41060;DHT22;26811;53.160;8.202;2022-07-29T08:42:57;27.40;86.80
41060;DHT22;26811;53.160;8.202;2022-07-29T08:47:57;27.00;87.50
41060;DHT22;26811;53.160;8.202;2022-07-29T08:52:58;26.70;87.90
41060;DHT22;26811;53.160;8.202;2022-07-29T08:57:59;26.90;88.00
41060;DHT22;26811;53.160;8.202;2022-07-29T09:03:00;27.10;88.20
41060;DHT22;26811;53.160;8.202;2022-07-29T09:08:02;26.50;88.50
41060;DHT22;26811;53.160;8.202;2022-07-29T09:13:02;25.80;90.00
41060;DHT22;26811;53.160;8.202;2022-07-29T09:18:03;26.00;89.10
41060;DHT22;26811;53.160;8.202;2022-07-29T09:23:07;25.30;90.20
41060;DHT22;26811;53.160;8.202;2022-07-29T09:28:10;24.70;91.40
41060;DHT22;26811;53.160;8.202;2022-07-29T09:33:11;24.60;91.10
41060;DHT22;26811;53.160;8.202;2022-07-29T09:38:13;24.20;91.30
41060;DHT22;26811;53.160;8.202;2022-07-29T09:43:13;24.30;92.20
41060;DHT22;26811;53.160;8.202;2022-07-29T09:48:20;24.60;91.50
41060;DHT22;26811;53.160;8.202;2022-07-29T09:53:32;25.00;91.40
41060;DHT22;26811;53.160;8.202;2022-07-29T09:58:32;25.20;90.80
41060;DHT22;26811;53.160;8.202;2022-07-29T10:03:51;25.10;90.80
41060;DHT22;26811;53.160;8.202;2022-07-29T10:08:52;24.90;90.70
41060;DHT22;26811;53.160;8.202;2022-07-29T10:13:52;24.90;90.70
41060;DHT22;26811;53.160;8.202;2022-07-29T10:18:53;25.30;90.60
41060;DHT22;26811;53.160;8.202;2022-07-29T10:23:54;25.90;90.70
41060;DHT22;26811;53.160;8.202;2022-07-29T10:28:55;26.70;90.70
41060;DHT22;26811;53.160;8.202;2022-07-29T10:34:11;27.40;88.20
41060;DHT22;26811;53.160;8.202;2022-07-29T10:44:22;26.00;85.80
41060;DHT22;26811;53.160;8.202;2022-07-29T10:49:25;25.80;87.40
41060;DHT22;26811;53.160;8.202;2022-07-29T10:59:34;25.60;86.40
41060;DHT22;26811;53.160;8.202;2022-07-29T11:09:44;25.80;87.90
41060;DHT22;26811;53.160;8.202;2022-07-29T11:15:06;25.90;86.30
41060;DHT22;26811;53.160;8.202;2022-07-29T11:20:31;25.70;86.50
41060;DHT22;26811;53.160;8.202;2022-07-29T11:25:32;26.00;86.90
41060;DHT22;26811;53.160;8.202;2022-07-29T11:30:50;26.90;88.50
41060;DHT22;26811;53.160;8.202;2022-07-29T11:36:09;27.90;83.20
41060;DHT22;26811;53.160;8.202;2022-07-29T11:41:26;28.10;82.10
41060;DHT22;26811;53.160;8.202;2022-07-29T11:46:47;27.80;83.00
41060;DHT22;26811;53.160;8.202;2022-07-29T11:51:57;27.30;81.70
41060;DHT22;26811;53.160;8.202;2022-07-29T11:56:58;26.40;82.60
41060;DHT22;26811;53.160;8.202;2022-07-29T12:01:59;26.00;83.20
41060;DHT22;26811;53.160;8.202;2022-07-29T12:07:00;25.60;84.90
41060;DHT22;26811;53.160;8.202;2022-07-29T12:12:01;25.40;86.20
41060;DHT22;26811;53.160;8.202;2022-07-29T12:17:01;25.50;86.60
41060;DHT22;26811;53.160;8.202;2022-07-29T12:22:02;25.60;87.50
41060;DHT22;26811;53.160;8.202;2022-07-29T12:27:03;25.40;87.20
41060;DHT22;26811;53.160;8.202;2022-07-29T12:32:04;25.40;87.60
41060;DHT22;26811;53.160;8.202;2022-07-29T12:37:06;25.40;87.70
41060;DHT22;26811;53.160;8.202;2022-07-29T12:42:13;25.30;89.00
41060;DHT22;26811;53.160;8.202;2022-07-29T12:47:16;25.30;89.60
41060;DHT22;26811;53.160;8.202;2022-07-29T12:52:29;25.40;88.70
41060;DHT22;26811;53.160;8.202;2022-07-29T12:57:31;25.50;88.10
41060;DHT22;26811;53.160;8.202;2022-07-29T13:02:32;25.70;90.00
41060;DHT22;26811;53.160;8.202;2022-07-29T13:07:33;25.80;87.80
41060;DHT22;26811;53.160;8.202;2022-07-29T13:12:36;25.90;88.70
41060;DHT22;26811;53.160;8.202;2022-07-29T13:17:42;25.80;86.50
41060;DHT22;26811;53.160;8.202;2022-07-29T13:22:47;25.70;87.70
41060;DHT22;26811;53.160;8.202;2022-07-29T13:27:48;25.60;87.90
41060;DHT22;26811;53.160;8.202;2022-07-29T13:32:49;25.60;86.60
41060;DHT22;26811;53.160;8.202;2022-07-29T13:37:50;25.50;84.90
41060;DHT22;26811;53.160;8.202;2022-07-29T13:42:50;25.50;83.20
41060;DHT22;26811;53.160;8.202;2022-07-29T13:47:51;25.40;83.60
41060;DHT22;26811;53.160;8.202;2022-07-29T13:52:52;25.30;84.60
41060;DHT22;26811;53.160;8.202;2022-07-29T13:57:53;25.20;85.20
41060;DHT22;26811;53.160;8.202;2022-07-29T14:02:53;25.10;84.30
41060;DHT22;26811;53.160;8.202;2022-07-29T14:07:54;25.00;83.80
41060;DHT22;26811;53.160;8.202;2022-07-29T14:12:54;24.90;84.80
41060;DHT22;26811;53.160;8.202;2022-07-29T14:17:55;24.90;84.40
41060;DHT22;26811;53.160;8.202;2022-07-29T14:22:56;24.90;87.20
41060;DHT22;26811;53.160;8.202;2022-07-29T14:27:56;24.90;89.50
41060;DHT22;26811;53.160;8.202;2022-07-29T14:32:57;24.90;90.80
41060;DHT22;26811;53.160;8.202;2022-07-29T14:37:57;24.80;91.10
41060;DHT22;26811;53.160;8.202;2022-07-29T14:42:58;24.60;91.80
41060;DHT22;26811;53.160;8.202;2022-07-29T14:47:58;24.50;91.70
41060;DHT22;26811;53.160;8.202;2022-07-29T14:53:00;24.20;92.80
41060;DHT22;26811;53.160;8.202;2022-07-29T14:58:01;23.90;93.20
41060;DHT22;26811;53.160;8.202;2022-07-29T15:03:02;23.70;93.20
41060;DHT22;26811;53.160;8.202;2022-07-29T15:08:03;23.50;93.70
41060;DHT22;26811;53.160;8.202;2022-07-29T15:13:04;23.30;94.50
41060;DHT22;26811;53.160;8.202;2022-07-29T15:18:05;23.00;94.90
41060;DHT22;26811;53.160;8.202;2022-07-29T15:23:05;22.60;97.20
41060;DHT22;26811;53.160;8.202;2022-07-29T15:28:09;22.10;99.90
41060;DHT22;26811;53.160;8.202;2022-07-29T15:33:10;21.60;99.90
41060;DHT22;26811;53.160;8.202;2022-07-29T15:38:10;21.20;99.90
41060;DHT22;26811;53.160;8.202;2022-07-29T15:43:11;20.90;99.90
41060;DHT22;26811;53.160;8.202;2022-07-29T15:48:12;20.60;99.90
41060;DHT22;26811;53.160;8.202;2022-07-29T15:53:13;20.50;99.90
41060;DHT22;26811;53.160;8.202;2022-07-29T15:58:13;20.30;99.90
41060;DHT22;26811;53.160;8.202;2022-07-29T16:03:14;20.30;99.90
41060;DHT22;26811;53.160;8.202;2022-07-29T16:08:15;20.20;99.90
41060;DHT22;26811;53.160;8.202;2022-07-29T16:13:16;20.20;99.90
41060;DHT22;26811;53.160;8.202;2022-07-29T16:18:16;20.10;99.90
41060;DHT22;26811;53.160;8.202;2022-07-29T16:23:17;20.10;99.90
41060;DHT22;26811;53.160;8.202;2022-07-29T16:28:17;20.10;99.90
41060;DHT22;26811;53.160;8.202;2022-07-29T16:33:18;20.00;99.90
41060;DHT22;26811;53.160;8.202;2022-07-29T16:38:18;20.00;99.90
41060;DHT22;26811;53.160;8.202;2022-07-29T16:43:19;20.00;99.90
41060;DHT22;26811;53.160;8.202;2022-07-29T16:48:19;20.00;99.90
41060;DHT22;26811;53.160;8.202;2022-07-29T16:53:20;20.00;99.90
41060;DHT22;26811;53.160;8.202;2022-07-29T16:58:21;20.10;99.90
41060;DHT22;26811;53.160;8.202;2022-07-29T17:03:21;20.20;99.90
41060;DHT22;26811;53.160;8.202;2022-07-29T17:08:22;20.30;99.90
41060;DHT22;26811;53.160;8.202;2022-07-29T17:13:23;20.40;99.90
41060;DHT22;26811;53.160;8.202;2022-07-29T17:18:24;20.50;99.90
41060;DHT22;26811;53.160;8.202;2022-07-29T17:23:24;20.50;99.90
41060;DHT22;26811;53.160;8.202;2022-07-29T17:28:26;20.50;99.90
41060;DHT22;26811;53.160;8.202;2022-07-29T17:33:26;20.50;99.90
41060;DHT22;26811;53.160;8.202;2022-07-29T17:38:27;20.50;99.90
41060;DHT22;26811;53.160;8.202;2022-07-29T17:43:27;20.40;99.90
41060;DHT22;26811;53.160;8.202;2022-07-29T17:48:28;20.40;99.90
41060;DHT22;26811;53.160;8.202;2022-07-29T17:53:28;20.40;99.90
41060;DHT22;26811;53.160;8.202;2022-07-29T17:58:30;20.40;99.90
41060;DHT22;26811;53.160;8.202;2022-07-29T18:03:31;20.20;99.90
41060;DHT22;26811;53.160;8.202;2022-07-29T18:08:32;20.10;99.90
41060;DHT22;26811;53.160;8.202;2022-07-29T18:13:33;20.10;99.90
41060;DHT22;26811;53.160;8.202;2022-07-29T18:18:34;20.20;99.90
41060;DHT22;26811;53.160;8.202;2022-07-29T18:23:34;20.20;99.90
41060;DHT22;26811;53.160;8.202;2022-07-29T18:28:35;20.20;99.90
41060;DHT22;26811;53.160;8.202;2022-07-29T18:33:36;20.20;99.90
41060;DHT22;26811;53.160;8.202;2022-07-29T18:38:39;20.20;99.90
41060;DHT22;26811;53.160;8.202;2022-07-29T18:43:40;20.20;99.90
41060;DHT22;26811;53.160;8.202;2022-07-29T18:48:41;20.20;99.90
41060;DHT22;26811;53.160;8.202;2022-07-29T18:53:41;20.20;99.90
41060;DHT22;26811;53.160;8.202;2022-07-29T18:58:42;20.20;99.90
41060;DHT22;26811;53.160;8.202;2022-07-29T19:03:42;20.10;99.90
41060;DHT22;26811;53.160;8.202;2022-07-29T19:08:43;20.10;99.90
41060;DHT22;26811;53.160;8.202;2022-07-29T19:13:44;20.10;99.90
41060;DHT22;26811;53.160;8.202;2022-07-29T19:18:44;20.10;99.90
41060;DHT22;26811;53.160;8.202;2022-07-29T19:23:47;20.10;99.90
41060;DHT22;26811;53.160;8.202;2022-07-29T19:28:47;20.10;99.90
41060;DHT22;26811;53.160;8.202;2022-07-29T19:33:48;20.00;99.90
41060;DHT22;26811;53.160;8.202;2022-07-29T19:38:51;20.00;99.90
41060;DHT22;26811;53.160;8.202;2022-07-29T19:43:52;19.90;99.90
41060;DHT22;26811;53.160;8.202;2022-07-29T19:48:53;19.80;99.90
41060;DHT22;26811;53.160;8.202;2022-07-29T19:53:54;19.70;99.90
41060;DHT22;26811;53.160;8.202;2022-07-29T19:58:55;19.70;99.90
41060;DHT22;26811;53.160;8.202;2022-07-29T20:03:56;19.70;99.90
41060;DHT22;26811;53.160;8.202;2022-07-29T20:08:57;19.70;99.90
41060;DHT22;26811;53.160;8.202;2022-07-29T20:13:57;19.70;99.90
41060;DHT22;26811;53.160;8.202;2022-07-29T20:18:58;19.70;99.90
41060;DHT22;26811;53.160;8.202;2022-07-29T20:23:59;19.70;99.90
41060;DHT22;26811;53.160;8.202;2022-07-29T20:29:01;19.80;99.90
41060;DHT22;26811;53.160;8.202;2022-07-29T20:34:04;19.80;99.90
41060;DHT22;26811;53.160;8.202;2022-07-29T20:39:05;19.80;99.90
41060;DHT22;26811;53.160;8.202;2022-07-29T20:44:06;19.80;99.90
41060;DHT22;26811;53.160;8.202;2022-07-29T20:49:06;19.60;99.90
41060;DHT22;26811;53.160;8.202;2022-07-29T20:54:07;19.50;99.90
41060;DHT22;26811;53.160;8.202;2022-07-29T20:59:08;19.40;99.90
41060;DHT22;26811;53.160;8.202;2022-07-29T21:04:08;19.30;99.90
41060;DHT22;26811;53.160;8.202;2022-07-29T21:09:09;19.20;99.90
41060;DHT22;26811;53.160;8.202;2022-07-29T21:14:11;19.20;99.90
41060;DHT22;26811;53.160;8.202;2022-07-29T21:19:27;19.10;99.90
41060;DHT22;26811;53.160;8.202;2022-07-29T21:24:28;19.10;99.90
41060;DHT22;26811;53.160;8.202;2022-07-29T21:29:29;19.00;99.90
41060;DHT22;26811;53.160;8.202;2022-07-29T21:34:29;18.90;99.90
41060;DHT22;26811;53.160;8.202;2022-07-29T21:39:30;18.70;99.90
41060;DHT22;26811;53.160;8.202;2022-07-29T21:44:30;18.60;99.90
41060;DHT22;26811;53.160;8.202;2022-07-29T21:49:31;18.60;99.90
41060;DHT22;26811;53.160;8.202;2022-07-29T21:54:32;18.50;99.90
41060;DHT22;26811;53.160;8.202;2022-07-29T21:59:32;18.50;99.90
41060;DHT22;26811;53.160;8.202;2022-07-29T22:04:33;18.60;99.90
41060;DHT22;26811;53.160;8.202;2022-07-29T22:09:35;18.50;99.90
41060;DHT22;26811;53.160;8.202;2022-07-29T22:14:35;18.50;99.90
41060;DHT22;26811;53.160;8.202;2022-07-29T22:19:36;18.50;99.90
41060;DHT22;26811;53.160;8.202;2022-07-29T22:24:37;18.50;99.90
41060;DHT22;26811;53.160;8.202;2022-07-29T22:29:38;18.40;99.90
41060;DHT22;26811;53.160;8.202;2022-07-29T22:34:38;18.30;99.90
41060;DHT22;26811;53.160;8.202;2022-07-29T22:39:39;18.30;99.90
41060;DHT22;26811;53.160;8.202;2022-07-29T22:44:39;18.30;99.90
41060;DHT22;26811;53.160;8.202;2022-07-29T22:49:40;18.30;99.90
41060;DHT22;26811;53.160;8.202;2022-07-29T22:54:41;18.40;99.90
41060;DHT22;26811;53.160;8.202;2022-07-29T22:59:41;18.40;99.90
41060;DHT22;26811;53.160;8.202;2022-07-29T23:04:42;18.40;99.90
41060;DHT22;26811;53.160;8.202;2022-07-29T23:09:42;18.40;99.90
41060;DHT22;26811;53.160;8.202;2022-07-29T23:14:43;18.30;99.90
41060;DHT22;26811;53.160;8.202;2022-07-29T23:19:43;18.20;99.90
41060;DHT22;26811;53.160;8.202;2022-07-29T23:24:44;18.20;99.90
41060;DHT22;26811;53.160;8.202;2022-07-29T23:29:44;18.20;99.90
41060;DHT22;26811;53.160;8.202;2022-07-29T23:34:45;18.20;99.90
41060;DHT22;26811;53.160;8.202;2022-07-29T23:39:45;18.20;99.90
41060;DHT22;26811;53.160;8.202;2022-07-29T23:44:46;18.20;99.90
41060;DHT22;26811;53.160;8.202;2022-07-29T23:49:46;18.20;99.90
41060;DHT22;26811;53.160;8.202;2022-07-29T23:54:49;18.10;99.90
41060;DHT22;26811;53.160;8.202;2022-07-29T23:59:50;17.90;99.90
